Time;durP1;ratioP1;P1;durP2;ratioP2;P2;SDS_P1;SDS_P2;PMS_P1;PMS_P2;Temp;Humidity;BMP_temperature;BMP_pressure;BME280_temperature;BME280_humidity;BME280_pressure;Samples;Min_cycle;Max_cycle;Signal;HPM_P1;HPM_P2
2022/02/21 00:01:52;;;;;;;12.80;2.38;;;6.70;99.90;;;;;;5057757;28;20036;-53
2022/02/21 00:04:18;;;;;;;15.60;2.30;;;6.70;99.90;;;;;;5068485;28;20049;-53
2022/02/21 00:06:43;;;;;;;17.02;2.50;;;6.60;99.90;;;;;;5073710;28;20540;-53
2022/02/21 00:09:12;;;;;;;17.50;2.30;;;6.60;99.90;;;;;;5072105;28;20500;-53
2022/02/21 00:11:38;;;;;;;14.32;2.80;;;6.60;99.90;;;;;;5072139;28;20389;-49
2022/02/21 00:14:04;;;;;;;13.15;2.33;;;6.60;99.90;;;;;;5073391;28;20036;-55
2022/02/21 00:16:29;;;;;;;14.20;2.42;;;6.60;99.90;;;;;;5053770;28;20045;-53
2022/02/21 00:18:55;;;;;;;14.43;2.10;;;6.60;99.90;;;;;;5053470;28;20037;-54
2022/02/21 00:21:21;;;;;;;12.52;2.30;;;6.60;99.90;;;;;;5057531;28;20037;-53
2022/02/21 00:23:46;;;;;;;6.80;1.15;;;6.60;99.90;;;;;;5059043;28;20116;-55
2022/02/21 00:26:14;;;;;;;10.35;1.60;;;6.60;99.90;;;;;;5026947;28;20041;-53
2022/02/21 00:28:39;;;;;;;9.20;1.60;;;6.50;99.90;;;;;;5068603;28;20044;-50
2022/02/21 00:31:05;;;;;;;10.48;1.80;;;6.50;99.90;;;;;;5073160;28;20397;-52
2022/02/21 00:33:31;;;;;;;10.18;1.70;;;6.40;99.90;;;;;;5066734;28;20123;-52
2022/02/21 00:35:57;;;;;;;10.07;1.83;;;6.40;99.90;;;;;;5053048;28;20124;-56
2022/02/21 00:38:22;;;;;;;10.40;1.83;;;6.40;99.90;;;;;;5052558;28;20451;-51
2022/02/21 00:40:48;;;;;;;7.55;1.85;;;6.30;99.90;;;;;;5052522;28;20037;-53
2022/02/21 00:43:14;;;;;;;10.88;1.73;;;6.30;99.90;;;;;;5054172;28;20120;-51
2022/02/21 00:45:39;;;;;;;12.90;2.05;;;6.20;99.90;;;;;;5053114;28;20050;-53
2022/02/21 00:48:05;;;;;;;10.45;1.90;;;6.10;99.90;;;;;;5068619;28;20048;-53
2022/02/21 00:50:31;;;;;;;12.55;1.95;;;6.00;99.90;;;;;;5067938;28;20041;-54
2022/02/21 00:52:57;;;;;;;6.82;1.42;;;6.00;99.90;;;;;;5067294;28;20078;-51
2022/02/21 00:55:22;;;;;;;8.40;1.80;;;6.00;99.90;;;;;;5058870;28;20400;-54
2022/02/21 00:57:48;;;;;;;10.85;2.35;;;6.10;99.90;;;;;;5052715;28;20037;-52
2022/02/21 01:00:14;;;;;;;12.65;1.95;;;6.00;99.90;;;;;;5052712;28;20051;-53
2022/02/21 01:02:39;;;;;;;13.27;2.55;;;6.00;99.90;;;;;;5051392;28;20047;-52
2022/02/21 01:05:08;;;;;;;11.77;2.40;;;6.00;99.90;;;;;;5055637;28;20431;-55
2022/02/21 01:07:34;;;;;;;10.05;1.63;;;6.00;99.90;;;;;;5061047;28;20051;-52
2022/02/21 01:09:59;;;;;;;13.82;2.58;;;6.00;99.90;;;;;;5050967;28;20037;-53
2022/02/21 01:12:25;;;;;;;19.98;2.80;;;6.10;99.90;;;;;;5062609;28;20063;-51
2022/02/21 01:14:51;;;;;;;16.27;2.50;;;6.10;99.90;;;;;;5053196;28;20123;-52
2022/02/21 01:17:17;;;;;;;15.38;2.90;;;6.10;99.90;;;;;;5050797;28;20029;-53
2022/02/21 01:19:43;;;;;;;26.27;3.83;;;6.20;99.90;;;;;;5061819;28;20044;-52
2022/02/21 01:22:09;;;;;;;16.15;2.85;;;6.20;99.90;;;;;;5053502;28;20071;-53
2022/02/21 01:24:35;;;;;;;20.50;3.25;;;6.20;99.90;;;;;;5052344;28;20115;-55
2022/02/21 01:27:00;;;;;;;31.08;3.47;;;6.30;99.90;;;;;;5055567;28;20049;-50
2022/02/21 01:29:26;;;;;;;19.73;3.42;;;6.20;99.90;;;;;;5058481;28;20051;-52
2022/02/21 01:31:53;;;;;;;21.77;3.47;;;6.30;99.90;;;;;;5052134;28;20072;-53
2022/02/21 01:34:20;;;;;;;18.95;3.95;;;6.30;99.90;;;;;;5052715;28;20037;-52
2022/02/21 01:36:46;;;;;;;30.45;3.92;;;6.40;99.90;;;;;;5052201;28;20095;-55
2022/02/21 01:39:12;;;;;;;17.15;3.45;;;6.40;99.90;;;;;;5052233;28;20076;-53
2022/02/21 01:41:38;;;;;;;17.60;3.10;;;6.30;99.90;;;;;;5052201;28;20044;-52
2022/02/21 01:44:05;;;;;;;22.75;4.13;;;6.30;99.90;;;;;;5054503;28;20484;-53
2022/02/21 01:46:30;;;;;;;17.92;3.47;;;6.40;99.90;;;;;;5055993;28;20111;-52
2022/02/21 01:48:56;;;;;;;10.95;2.70;;;6.40;99.90;;;;;;5071609;28;20044;-53
2022/02/21 01:51:21;;;;;;;12.75;3.35;;;6.40;99.90;;;;;;5067013;28;20024;-53
2022/02/21 01:53:47;;;;;;;16.30;2.97;;;6.30;99.90;;;;;;5059009;28;20040;-53
2022/02/21 01:56:13;;;;;;;25.40;3.33;;;6.30;99.90;;;;;;5062800;28;20033;-52
2022/02/21 01:58:38;;;;;;;18.88;3.50;;;6.20;99.90;;;;;;5052073;28;20044;-53
2022/02/21 02:01:04;;;;;;;18.08;3.35;;;6.20;99.90;;;;;;5051669;28;20122;-52
2022/02/21 02:03:30;;;;;;;18.95;3.38;;;6.10;99.90;;;;;;5067370;28;20040;-54
2022/02/21 02:05:56;;;;;;;16.70;3.30;;;6.00;99.90;;;;;;5067171;28;20040;-53
2022/02/21 02:08:21;;;;;;;17.15;3.28;;;6.00;99.90;;;;;;5071257;28;20496;-53
2022/02/21 02:10:47;;;;;;;18.63;3.35;;;5.90;99.90;;;;;;5071651;28;20048;-54
2022/02/21 02:13:13;;;;;;;7.85;1.95;;;5.90;99.90;;;;;;5069729;28;20535;-52
2022/02/21 02:15:39;;;;;;;18.75;3.33;;;5.90;99.90;;;;;;5058233;28;20080;-52
2022/02/21 02:18:04;;;;;;;15.98;3.00;;;5.90;99.90;;;;;;5059436;28;20047;-53
2022/02/21 02:20:30;;;;;;;16.67;2.70;;;5.90;99.90;;;;;;5058738;28;20049;-51
2022/02/21 02:22:56;;;;;;;18.77;3.05;;;5.80;99.90;;;;;;5034640;28;20040;-52
2022/02/21 02:25:21;;;;;;;19.75;3.75;;;5.80;99.90;;;;;;5060081;28;20041;-49
2022/02/21 02:27:48;;;;;;;19.75;3.85;;;5.80;99.90;;;;;;5049874;28;20067;-53
2022/02/21 02:30:14;;;;;;;17.15;3.30;;;5.80;99.90;;;;;;5062871;28;20116;-54
2022/02/21 02:32:39;;;;;;;12.07;2.67;;;5.80;99.90;;;;;;5052989;28;20139;-52
2022/02/21 02:35:06;;;;;;;19.73;3.67;;;5.80;99.90;;;;;;5051993;28;20044;-51
2022/02/21 02:37:32;;;;;;;18.00;3.10;;;5.80;99.90;;;;;;5069373;28;20044;-52
2022/02/21 02:39:59;;;;;;;16.50;2.53;;;5.70;99.90;;;;;;5058416;28;20047;-53
2022/02/21 02:42:25;;;;;;;17.98;3.05;;;5.80;99.90;;;;;;5051298;28;20043;-52
2022/02/21 02:44:50;;;;;;;14.60;2.47;;;5.70;99.90;;;;;;5067949;28;20045;-52
2022/02/21 02:47:16;;;;;;;19.23;2.65;;;5.70;99.90;;;;;;5069194;28;20039;-55
2022/02/21 02:49:42;;;;;;;12.40;2.03;;;5.60;99.90;;;;;;5063627;28;20040;-52
2022/02/21 02:52:09;;;;;;;15.50;2.47;;;5.40;99.90;;;;;;5069464;28;20435;-50
2022/02/21 02:54:35;;;;;;;11.98;2.20;;;5.30;99.90;;;;;;5051643;28;20036;-55
2022/02/21 02:57:01;;;;;;;11.68;2.78;;;5.10;99.90;;;;;;5055259;28;20401;-51
2022/02/21 02:59:27;;;;;;;17.35;2.67;;;5.00;99.90;;;;;;5050967;28;20076;-55
2022/02/21 03:01:54;;;;;;;13.10;2.78;;;4.80;99.90;;;;;;5050941;28;20084;-53
2022/02/21 03:04:20;;;;;;;15.25;2.58;;;4.70;99.90;;;;;;5057986;28;20032;-53
2022/02/21 03:06:46;;;;;;;17.73;2.90;;;4.60;99.90;;;;;;5065592;28;20066;-50
2022/02/21 03:09:12;;;;;;;20.08;3.10;;;4.50;99.90;;;;;;5063371;28;20033;-52
2022/02/21 03:11:37;;;;;;;46.28;4.25;;;4.50;99.90;;;;;;5055463;28;20449;-52
2022/02/21 03:14:03;;;;;;;22.17;3.42;;;4.50;99.90;;;;;;5061069;28;20112;-55
2022/02/21 03:16:29;;;;;;;18.15;3.08;;;4.60;99.90;;;;;;5068447;28;20412;-52
2022/02/21 03:18:54;;;;;;;13.27;2.50;;;4.70;99.90;;;;;;5066277;28;20036;-54
2022/02/21 03:21:22;;;;;;;20.98;2.80;;;4.90;99.90;;;;;;5061103;28;20033;-54
2022/02/21 03:23:48;;;;;;;14.30;2.30;;;5.00;99.90;;;;;;5065701;28;20485;-53
2022/02/21 03:26:14;;;;;;;14.98;3.20;;;5.00;99.90;;;;;;5070180;28;20047;-53
2022/02/21 03:28:40;;;;;;;13.90;2.28;;;5.10;99.90;;;;;;5073812;28;20040;-55
2022/02/21 03:31:05;;;;;;;16.60;2.10;;;5.20;99.90;;;;;;5074899;28;20504;-55
2022/02/21 03:33:31;;;;;;;15.63;2.95;;;5.20;99.90;;;;;;5068186;28;20134;-52
2022/02/21 03:35:57;;;;;;;16.23;2.92;;;5.30;99.90;;;;;;5064276;28;20036;-56
2022/02/21 03:38:22;;;;;;;17.63;2.75;;;5.30;99.90;;;;;;5059418;28;20037;-53
2022/02/21 03:40:49;;;;;;;16.25;3.78;;;5.30;99.90;;;;;;5054576;28;20041;-54
2022/02/21 03:43:14;;;;;;;19.15;2.70;;;5.20;99.90;;;;;;5054296;28;20117;-52
2022/02/21 03:45:40;;;;;;;17.33;3.67;;;5.20;99.90;;;;;;5073840;28;20067;-54
2022/02/21 03:48:06;;;;;;;16.35;2.70;;;5.20;99.90;;;;;;5072619;28;20040;-53
2022/02/21 03:50:31;;;;;;;12.90;3.28;;;5.20;99.90;;;;;;5071891;28;20041;-51
2022/02/21 03:52:57;;;;;;;20.27;3.10;;;5.20;99.90;;;;;;5064914;28;20041;-52
2022/02/21 03:55:23;;;;;;;11.90;2.10;;;5.20;99.90;;;;;;5073422;28;20434;-53
2022/02/21 03:57:48;;;;;;;20.50;3.50;;;5.30;99.90;;;;;;5062611;28;20056;-53
2022/02/21 04:00:15;;;;;;;14.15;2.63;;;5.30;99.90;;;;;;5054741;28;20068;-51
2022/02/21 04:02:42;;;;;;;13.60;2.17;;;5.20;99.90;;;;;;5058246;28;20138;-53
2022/02/21 04:05:08;;;;;;;17.08;2.80;;;5.30;99.90;;;;;;5057343;28;20040;-52
2022/02/21 04:07:34;;;;;;;15.88;2.72;;;5.30;99.90;;;;;;5065405;28;20040;-52
2022/02/21 04:10:00;;;;;;;15.18;2.58;;;5.20;99.90;;;;;;5055136;28;20036;-51
2022/02/21 04:12:26;;;;;;;16.48;2.33;;;5.20;99.90;;;;;;5053675;28;20543;-51
2022/02/21 04:14:51;;;;;;;11.77;2.45;;;5.20;99.90;;;;;;5056542;28;20096;-51
2022/02/21 04:17:17;;;;;;;13.85;2.65;;;5.10;99.90;;;;;;5054188;28;20116;-53
2022/02/21 04:19:46;;;;;;;18.63;3.25;;;5.00;99.90;;;;;;5070118;28;20040;-53
2022/02/21 04:22:12;;;;;;;16.33;3.08;;;5.00;99.90;;;;;;5073601;28;20041;-52
2022/02/21 04:24:38;;;;;;;12.73;2.22;;;5.00;99.90;;;;;;5068922;28;20044;-55
2022/02/21 04:27:05;;;;;;;16.23;3.10;;;5.00;99.90;;;;;;5064287;28;20159;-48
2022/02/21 04:29:31;;;;;;;22.70;3.10;;;5.00;99.90;;;;;;5058597;28;20523;-49
2022/02/21 04:31:56;;;;;;;15.07;2.42;;;4.90;99.90;;;;;;5057551;28;20063;-52
2022/02/21 04:34:22;;;;;;;16.73;2.88;;;5.00;99.90;;;;;;5052604;28;20123;-51
2022/02/21 04:36:47;;;;;;;17.55;2.95;;;5.00;99.90;;;;;;5053363;28;20043;-52
2022/02/21 04:39:13;;;;;;;12.43;2.83;;;5.00;99.90;;;;;;5053312;28;20041;-51
2022/02/21 04:41:39;;;;;;;11.93;2.53;;;5.00;99.90;;;;;;5053137;28;20468;-51
2022/02/21 04:44:05;;;;;;;12.02;2.72;;;5.00;99.90;;;;;;5069147;28;20045;-51
2022/02/21 04:46:30;;;;;;;11.25;2.80;;;5.20;99.90;;;;;;5052979;28;20076;-55
2022/02/21 04:48:56;;;;;;;22.80;3.03;;;5.20;99.90;;;;;;5053095;28;20045;-54
2022/02/21 04:51:22;;;;;;;14.50;3.03;;;5.20;99.90;;;;;;5055434;28;20072;-55
2022/02/21 04:53:48;;;;;;;11.80;2.10;;;5.20;99.90;;;;;;5043534;28;20098;-54
2022/02/21 04:56:14;;;;;;;14.88;2.90;;;5.30;99.90;;;;;;5070723;28;20040;-52
2022/02/21 04:58:40;;;;;;;16.70;2.53;;;5.30;99.90;;;;;;5065653;28;20068;-50
2022/02/21 05:01:05;;;;;;;14.18;2.75;;;5.30;99.90;;;;;;5053085;28;20040;-52
2022/02/21 05:03:31;;;;;;;15.00;2.58;;;5.30;99.90;;;;;;5052872;28;20124;-53
2022/02/21 05:05:56;;;;;;;16.85;3.05;;;5.30;99.90;;;;;;5052959;28;20122;-54
2022/02/21 05:08:22;;;;;;;16.10;2.92;;;5.30;99.90;;;;;;5053263;28;20037;-49
2022/02/21 05:10:47;;;;;;;13.85;2.28;;;5.30;99.90;;;;;;5071267;28;20475;-51
2022/02/21 05:13:13;;;;;;;17.38;2.90;;;5.40;99.90;;;;;;5070847;28;20036;-52
2022/02/21 05:15:38;;;;;;;16.02;2.90;;;5.30;99.90;;;;;;5052800;28;20060;-54
2022/02/21 05:18:04;;;;;;;18.75;2.70;;;5.40;99.90;;;;;;5053473;28;20120;-52
2022/02/21 05:20:30;;;;;;;16.77;2.65;;;5.40;99.90;;;;;;5035041;28;20127;-52
2022/02/21 05:22:55;;;;;;;25.15;3.13;;;5.40;99.90;;;;;;5052422;28;20128;-52
2022/02/21 05:25:21;;;;;;;14.75;2.78;;;5.30;99.90;;;;;;5052567;28;20142;-52
2022/02/21 05:27:47;;;;;;;16.02;3.03;;;5.40;99.90;;;;;;5070720;28;20067;-51
2022/02/21 05:30:13;;;;;;;16.63;2.40;;;5.40;99.90;;;;;;5072102;28;20059;-53
2022/02/21 05:32:39;;;;;;;19.38;3.10;;;5.40;99.90;;;;;;5058233;28;20049;-54
2022/02/21 05:35:06;;;;;;;16.27;2.90;;;5.30;99.90;;;;;;5064628;28;20052;-54
2022/02/21 05:37:31;;;;;;;14.63;2.80;;;5.40;99.90;;;;;;5066678;28;20036;-55
2022/02/21 05:39:57;;;;;;;14.45;2.95;;;5.40;99.90;;;;;;5070047;28;20032;-50
2022/02/21 05:42:22;;;;;;;18.95;3.15;;;5.40;99.90;;;;;;5057615;28;20078;-52
2022/02/21 05:44:48;;;;;;;17.33;3.00;;;5.40;99.90;;;;;;5056673;28;20045;-53
2022/02/21 05:47:14;;;;;;;13.95;3.10;;;5.40;99.90;;;;;;5063704;28;20474;-54
2022/02/21 05:49:39;;;;;;;18.80;3.45;;;5.50;99.90;;;;;;5071968;28;20124;-52
2022/02/21 05:52:05;;;;;;;13.02;2.85;;;5.50;99.90;;;;;;5053711;28;20033;-53
2022/02/21 05:54:31;;;;;;;18.33;2.63;;;5.40;99.90;;;;;;5051677;28;20044;-52
2022/02/21 05:56:57;;;;;;;16.40;3.22;;;5.40;99.90;;;;;;5051937;28;20037;-53
2022/02/21 05:59:23;;;;;;;16.85;3.15;;;5.40;99.90;;;;;;5052680;28;20040;-53
2022/02/21 06:01:48;;;;;;;19.05;3.58;;;5.30;99.90;;;;;;5072109;28;20068;-54
2022/02/21 06:04:14;;;;;;;18.08;3.63;;;5.30;99.90;;;;;;5056204;28;20083;-54
2022/02/21 06:06:40;;;;;;;18.27;3.15;;;5.30;99.90;;;;;;5063706;28;20044;-53
2022/02/21 06:09:05;;;;;;;19.05;2.80;;;5.40;99.90;;;;;;5051612;28;20417;-54
2022/02/21 06:11:31;;;;;;;16.50;2.47;;;5.40;99.90;;;;;;5066617;28;20489;-51
2022/02/21 06:13:56;;;;;;;17.98;3.15;;;5.30;99.90;;;;;;5071889;28;20047;-54
2022/02/21 06:16:22;;;;;;;16.75;3.78;;;5.40;99.90;;;;;;5061006;28;20037;-53
2022/02/21 06:18:48;;;;;;;13.25;2.70;;;5.40;99.90;;;;;;5051700;28;20528;-54
2022/02/21 06:21:14;;;;;;;18.65;2.70;;;5.40;99.90;;;;;;5056168;28;20432;-54
2022/02/21 06:23:39;;;;;;;19.85;3.10;;;5.40;99.90;;;;;;5063645;28;20041;-51
2022/02/21 06:26:06;;;;;;;14.85;2.75;;;5.40;99.90;;;;;;5050287;28;20045;-54
2022/02/21 06:28:32;;;;;;;20.58;2.83;;;5.50;99.90;;;;;;5055812;28;20045;-54
2022/02/21 06:30:58;;;;;;;19.73;3.35;;;5.40;99.90;;;;;;5055762;28;20043;-53
2022/02/21 06:33:25;;;;;;;20.15;3.53;;;5.40;99.90;;;;;;5060861;28;20037;-53
2022/02/21 06:35:51;;;;;;;22.05;3.03;;;5.40;99.90;;;;;;5057774;28;20435;-54
2022/02/21 06:38:16;;;;;;;16.10;2.85;;;5.40;99.90;;;;;;5055698;28;20041;-54
2022/02/21 06:40:42;;;;;;;14.68;2.85;;;5.50;99.90;;;;;;5060917;28;20037;-53
2022/02/21 06:43:08;;;;;;;17.48;3.65;;;5.50;99.90;;;;;;5063980;28;20090;-54
2022/02/21 06:45:34;;;;;;;17.25;3.15;;;5.40;99.90;;;;;;5062605;28;20071;-53
2022/02/21 06:47:59;;;;;;;22.95;3.35;;;5.40;99.90;;;;;;5068757;28;20405;-54
2022/02/21 06:50:26;;;;;;;21.23;3.17;;;5.40;99.90;;;;;;5060013;28;20075;-53
2022/02/21 06:52:52;;;;;;;20.25;2.88;;;5.40;99.90;;;;;;5058529;28;20045;-51
2022/02/21 06:55:17;;;;;;;20.63;3.30;;;5.30;99.90;;;;;;5058313;28;20570;-50
2022/02/21 06:57:45;;;;;;;17.42;2.67;;;5.40;99.90;;;;;;5059461;28;20037;-53
2022/02/21 07:00:11;;;;;;;23.85;3.20;;;5.40;99.90;;;;;;5056748;28;20033;-53
2022/02/21 07:02:37;;;;;;;22.17;3.92;;;5.40;99.90;;;;;;5061242;28;20152;-53
2022/02/21 07:05:03;;;;;;;17.63;3.13;;;5.40;99.90;;;;;;5063987;28;20072;-54
2022/02/21 07:07:29;;;;;;;15.15;3.15;;;5.40;99.90;;;;;;5065810;28;20037;-52
2022/02/21 07:09:55;;;;;;;15.32;2.60;;;5.40;99.90;;;;;;5057716;28;20033;-52
2022/02/21 07:12:21;;;;;;;27.60;3.78;;;5.40;99.90;;;;;;5056572;28;20055;-53
2022/02/21 07:14:47;;;;;;;21.67;3.63;;;5.40;99.90;;;;;;5058735;28;20041;-53
2022/02/21 07:17:13;;;;;;;16.25;3.88;;;5.40;99.90;;;;;;5077511;28;20067;-54
2022/02/21 07:19:38;;;;;;;18.77;4.13;;;5.40;99.90;;;;;;5069263;28;20484;-54
2022/02/21 07:22:04;;;;;;;17.48;3.55;;;5.40;99.90;;;;;;5059927;28;20044;-53
2022/02/21 07:24:31;;;;;;;19.30;3.47;;;5.40;99.90;;;;;;5056638;28;20048;-52
2022/02/21 07:26:57;;;;;;;15.63;3.25;;;5.50;99.90;;;;;;5068701;28;20090;-50
2022/02/21 07:29:23;;;;;;;21.52;4.38;;;5.50;99.90;;;;;;5057480;28;20029;-51
2022/02/21 07:31:50;;;;;;;23.45;3.65;;;5.50;99.90;;;;;;5057833;28;20040;-51
2022/02/21 07:34:15;;;;;;;17.27;3.53;;;5.50;99.90;;;;;;5056578;28;20079;-53
2022/02/21 07:36:42;;;;;;;21.90;4.13;;;5.50;99.90;;;;;;5059166;28;20044;-52
2022/02/21 07:39:07;;;;;;;17.95;2.97;;;5.50;99.90;;;;;;5072870;28;20041;-54
2022/02/21 07:41:33;;;;;;;22.52;3.20;;;5.50;99.90;;;;;;5064836;28;20033;-54
2022/02/21 07:43:59;;;;;;;17.92;2.80;;;5.50;99.90;;;;;;5048330;28;20143;-52
2022/02/21 07:46:25;;;;;;;20.98;3.67;;;5.60;99.90;;;;;;5061027;28;20053;-51
2022/02/21 07:48:50;;;;;;;19.83;3.97;;;5.50;99.90;;;;;;5061604;28;20075;-53
2022/02/21 07:51:16;;;;;;;18.90;3.35;;;5.60;99.90;;;;;;5058361;28;20028;-53
2022/02/21 07:53:41;;;;;;;17.77;3.00;;;5.60;99.90;;;;;;5067974;28;20063;-54
2022/02/21 07:56:07;;;;;;;17.30;3.78;;;5.50;99.90;;;;;;5074078;28;20032;-51
2022/02/21 07:58:32;;;;;;;16.20;3.47;;;5.50;99.90;;;;;;5074325;28;20041;-53
2022/02/21 08:00:58;;;;;;;21.02;3.00;;;5.50;99.90;;;;;;5071476;28;20494;-50
2022/02/21 08:03:23;;;;;;;16.55;2.92;;;5.50;99.90;;;;;;5061995;28;20045;-56
2022/02/21 08:05:49;;;;;;;21.25;3.13;;;5.50;99.90;;;;;;5064873;28;20040;-52
2022/02/21 08:08:15;;;;;;;15.32;3.10;;;5.50;99.90;;;;;;5053463;28;20044;-53
2022/02/21 08:10:40;;;;;;;22.70;3.67;;;5.50;99.90;;;;;;5053875;28;20048;-53
2022/02/21 08:13:06;;;;;;;19.98;2.90;;;5.50;99.90;;;;;;5053812;28;20413;-55
2022/02/21 08:15:31;;;;;;;19.73;3.22;;;5.50;99.90;;;;;;5070122;28;21376;-52
2022/02/21 08:17:57;;;;;;;17.25;3.53;;;5.60;99.90;;;;;;5066100;28;20033;-50
2022/02/21 08:20:24;;;;;;;16.02;3.45;;;5.50;99.90;;;;;;5061636;28;20472;-53
2022/02/21 08:22:51;;;;;;;16.58;3.55;;;5.50;99.90;;;;;;5057772;28;20041;-52
2022/02/21 08:25:17;;;;;;;17.75;3.28;;;5.50;99.90;;;;;;5053456;28;20119;-52
2022/02/21 08:27:44;;;;;;;24.67;4.38;;;5.50;99.90;;;;;;5057912;28;20552;-52
2022/02/21 08:30:13;;;;;;;19.10;3.08;;;5.50;99.90;;;;;;5062079;28;20162;-52
2022/02/21 08:32:39;;;;;;;18.63;3.10;;;5.40;99.90;;;;;;5059083;28;20517;-55
2022/02/21 08:35:06;;;;;;;16.33;3.33;;;5.30;99.90;;;;;;5062646;28;20043;-51
2022/02/21 08:37:32;;;;;;;19.67;3.58;;;5.30;99.90;;;;;;5066857;28;20496;-52
2022/02/21 08:39:57;;;;;;;18.85;3.13;;;5.20;99.90;;;;;;5062815;28;20067;-54
2022/02/21 08:42:23;;;;;;;23.33;3.60;;;5.10;99.90;;;;;;5056912;28;20041;-53
2022/02/21 08:44:48;;;;;;;15.85;2.80;;;5.10;99.90;;;;;;5054200;28;20048;-55
2022/02/21 08:47:16;;;;;;;19.63;3.08;;;5.00;99.90;;;;;;5036599;28;20063;-56
2022/02/21 08:49:42;;;;;;;21.27;3.83;;;5.00;99.90;;;;;;5052335;28;20047;-53
2022/02/21 08:52:08;;;;;;;16.30;3.30;;;4.90;99.90;;;;;;5057156;28;20033;-53
2022/02/21 08:54:35;;;;;;;11.38;2.92;;;4.80;99.90;;;;;;5054448;28;20033;-53
2022/02/21 08:57:05;;;;;;;15.85;2.30;;;4.50;99.90;;;;;;5051908;28;20040;-53
2022/02/21 08:59:31;;;;;;;13.93;2.50;;;4.40;99.90;;;;;;5053457;28;20517;-53
2022/02/21 09:01:57;;;;;;;9.65;2.17;;;4.30;99.90;;;;;;5052435;28;20498;-53
2022/02/21 09:04:22;;;;;;;13.43;2.28;;;4.10;99.90;;;;;;5051935;28;20094;-52
2022/02/21 09:06:48;;;;;;;8.93;2.00;;;4.00;99.90;;;;;;5059810;28;20083;-51
2022/02/21 09:09:14;;;;;;;12.50;2.28;;;3.80;99.90;;;;;;5056818;28;20489;-55
2022/02/21 09:11:40;;;;;;;8.35;1.65;;;3.70;99.90;;;;;;5055867;28;20102;-52
2022/02/21 09:14:06;;;;;;;9.25;2.08;;;3.60;99.90;;;;;;5059760;28;20037;-53
2022/02/21 09:16:32;;;;;;;10.25;2.03;;;3.50;99.90;;;;;;5060437;28;20044;-53
2022/02/21 09:18:57;;;;;;;9.35;1.80;;;3.40;99.90;;;;;;5061379;28;20056;-50
2022/02/21 09:21:23;;;;;;;13.40;1.70;;;3.30;99.90;;;;;;5060062;28;20036;-51
2022/02/21 09:23:49;;;;;;;10.68;1.92;;;3.20;99.90;;;;;;5063972;28;20041;-50
2022/02/21 09:26:15;;;;;;;11.40;2.00;;;3.20;99.90;;;;;;5044276;28;20091;-53
2022/02/21 09:28:41;;;;;;;16.20;2.15;;;3.20;99.90;;;;;;5059743;28;20486;-53
2022/02/21 09:31:06;;;;;;;13.02;2.42;;;3.20;99.90;;;;;;5060057;28;20032;-53
2022/02/21 09:33:32;;;;;;;10.13;1.88;;;3.30;99.90;;;;;;5066734;28;20055;-50
2022/02/21 09:35:57;;;;;;;13.05;2.15;;;3.30;99.90;;;;;;5059042;28;20401;-54
2022/02/21 09:38:23;;;;;;;10.93;2.20;;;3.40;99.90;;;;;;5064728;28;20032;-51
2022/02/21 09:40:50;;;;;;;5.80;1.73;;;3.40;99.90;;;;;;5059671;28;20037;-54
2022/02/21 09:43:20;;;;;;;8.10;1.80;;;3.50;99.90;;;;;;5062380;28;20040;-50
2022/02/21 09:45:46;;;;;;;6.43;1.67;;;3.50;99.90;;;;;;5060010;28;20032;-53
2022/02/21 09:48:14;;;;;;;10.30;2.15;;;3.50;99.90;;;;;;5057780;28;20455;-50
2022/02/21 09:50:41;;;;;;;15.70;1.70;;;3.50;99.90;;;;;;5058546;28;20048;-53
2022/02/21 09:53:07;;;;;;;7.68;1.25;;;3.40;99.90;;;;;;5059078;28;20044;-53
2022/02/21 09:55:34;;;;;;;11.85;2.00;;;3.40;99.90;;;;;;5058738;28;20036;-50
2022/02/21 09:58:00;;;;;;;5.35;1.35;;;3.40;99.90;;;;;;5058417;28;20489;-52
2022/02/21 10:00:25;;;;;;;7.95;1.88;;;3.40;99.90;;;;;;5061738;28;20048;-52
2022/02/21 10:02:52;;;;;;;4.32;1.30;;;3.30;99.90;;;;;;5062874;28;20041;-52
2022/02/21 10:05:25;;;;;;;4.70;1.50;;;3.30;99.90;;;;;;5058659;28;20497;-52
2022/02/21 10:07:52;;;;;;;7.13;1.17;;;3.30;99.90;;;;;;5061482;28;20039;-50
2022/02/21 10:10:23;;;;;;;9.00;1.45;;;3.30;99.90;;;;;;5056020;28;20269;-53
2022/02/21 10:12:55;;;;;;;4.27;1.13;;;3.20;99.90;;;;;;5057030;28;20072;-53
2022/02/21 10:15:25;;;;;;;4.05;1.10;;;3.30;99.90;;;;;;5061183;28;20790;-51
2022/02/21 10:18:07;;;;;;;5.05;1.67;;;3.30;99.90;;;;;;5061085;28;20037;-52
2022/02/21 10:20:32;;;;;;;7.32;1.45;;;3.30;99.90;;;;;;5060294;28;20564;-53
2022/02/21 10:23:04;;;;;;;4.25;1.20;;;3.30;99.90;;;;;;5061913;28;20119;-56
2022/02/21 10:25:29;;;;;;;4.70;1.55;;;3.30;99.90;;;;;;5050601;28;20036;-54
2022/02/21 10:27:59;;;;;;;4.15;1.27;;;3.30;99.90;;;;;;5054752;28;20492;-56
2022/02/21 10:30:24;;;;;;;5.57;1.42;;;3.30;99.90;;;;;;5067058;28;20050;-56
2022/02/21 10:32:50;;;;;;;6.32;1.23;;;3.40;99.90;;;;;;5038423;28;20044;-56
2022/02/21 10:35:30;;;;;;;6.53;1.63;;;3.30;99.90;;;;;;5062910;28;20036;-55
2022/02/21 10:37:59;;;;;;;4.72;1.20;;;3.30;99.90;;;;;;5065229;28;20055;-53
2022/02/21 10:40:33;;;;;;;5.22;1.38;;;3.20;99.90;;;;;;5064303;28;20447;-56
2022/02/21 10:43:10;;;;;;;4.78;1.08;;;3.30;99.90;;;;;;5058697;28;20112;-55
2022/02/21 10:45:37;;;;;;;4.75;1.40;;;3.20;99.90;;;;;;5063339;28;20075;-56
2022/02/21 10:48:10;;;;;;;3.78;1.40;;;3.20;99.90;;;;;;5055757;28;20388;-56
2022/02/21 10:50:52;;;;;;;3.85;1.33;;;3.20;99.90;;;;;;5058309;28;20047;-55
2022/02/21 10:53:23;;;;;;;4.07;1.20;;;3.20;99.90;;;;;;5051494;28;20561;-54
2022/02/21 10:55:51;;;;;;;3.88;1.45;;;3.20;99.90;;;;;;5055869;28;20054;-55
2022/02/21 10:58:23;;;;;;;3.88;1.20;;;3.40;99.90;;;;;;5051000;28;20032;-53
2022/02/21 11:00:49;;;;;;;5.05;1.40;;;3.40;99.90;;;;;;5048489;28;20077;-51
2022/02/21 11:03:17;;;;;;;6.53;1.30;;;3.40;99.90;;;;;;5050809;28;20047;-54
2022/02/21 11:05:45;;;;;;;3.13;1.30;;;3.40;99.90;;;;;;5051192;28;20041;-54
2022/02/21 11:08:12;;;;;;;3.85;1.25;;;3.40;99.90;;;;;;5056973;28;20043;-55
2022/02/21 11:10:40;;;;;;;5.20;1.58;;;3.50;99.90;;;;;;5049701;28;20037;-55
2022/02/21 11:13:06;;;;;;;4.57;1.58;;;3.50;99.90;;;;;;5051484;28;20555;-54
2022/02/21 11:15:32;;;;;;;7.95;1.95;;;3.60;99.90;;;;;;5049819;28;20500;-54
2022/02/21 11:18:00;;;;;;;8.63;1.77;;;3.60;99.90;;;;;;5054419;28;20080;-51
2022/02/21 11:20:26;;;;;;;10.40;2.00;;;3.70;99.90;;;;;;5051777;28;20051;-54
2022/02/21 11:22:51;;;;;;;12.70;2.65;;;3.70;99.90;;;;;;5051974;28;20058;-51
2022/02/21 11:25:39;;;;;;;14.40;2.88;;;3.80;99.90;;;;;;5046903;28;20101;-51
2022/02/21 11:28:16;;;;;;;18.23;3.40;;;3.90;99.90;;;;;;5053352;28;20044;-51
2022/02/21 11:30:43;;;;;;;17.67;3.00;;;4.00;99.90;;;;;;5056375;28;20040;-52
2022/02/21 11:33:11;;;;;;;15.93;2.92;;;4.10;99.90;;;;;;5059526;28;20094;-54
2022/02/21 11:35:57;;;;;;;14.75;2.67;;;4.20;99.90;;;;;;5050728;28;20025;-54
2022/02/21 11:38:25;;;;;;;17.88;3.45;;;4.30;99.90;;;;;;5057143;28;20041;-50
2022/02/21 11:40:57;;;;;;;17.50;2.97;;;4.40;99.90;;;;;;5058235;28;20094;-50
2022/02/21 11:43:34;;;;;;;18.85;2.38;;;4.40;99.90;;;;;;5059733;28;20036;-53
2022/02/21 11:46:05;;;;;;;21.80;3.30;;;4.50;99.90;;;;;;5057490;28;20064;-49
2022/02/21 11:48:49;;;;;;;17.80;3.20;;;4.60;99.90;;;;;;5060694;28;20280;-50
2022/02/21 11:51:31;;;;;;;19.55;3.17;;;4.70;99.90;;;;;;5058613;28;20501;-50
2022/02/21 11:54:16;;;;;;;25.40;3.78;;;4.70;99.90;;;;;;5058859;28;20386;-50
2022/02/21 11:56:48;;;;;;;27.60;3.97;;;4.80;99.90;;;;;;5056456;28;20051;-50
2022/02/21 11:59:22;;;;;;;22.33;3.65;;;4.90;99.90;;;;;;5062367;28;20090;-52
2022/02/21 12:01:48;;;;;;;26.40;3.35;;;4.90;99.90;;;;;;5063798;28;20374;-50
2022/02/21 12:04:20;;;;;;;26.17;4.55;;;5.10;99.90;;;;;;5064460;28;20041;-51
2022/02/21 12:06:54;;;;;;;31.25;4.20;;;5.10;99.90;;;;;;5059140;28;20528;-55
2022/02/21 12:09:20;;;;;;;31.58;4.47;;;5.30;99.90;;;;;;5059046;28;20391;-54
2022/02/21 12:11:45;;;;;;;25.45;3.30;;;5.40;99.90;;;;;;5054013;28;20047;-52
2022/02/21 12:14:11;;;;;;;30.33;4.70;;;5.50;99.90;;;;;;5065321;28;20035;-51
2022/02/21 12:16:57;;;;;;;26.30;4.88;;;5.60;99.90;;;;;;5057795;28;20437;-50
2022/02/21 12:19:30;;;;;;;30.33;4.32;;;5.80;99.90;;;;;;5045960;28;20036;-50
2022/02/21 12:22:13;;;;;;;31.92;4.85;;;5.90;99.90;;;;;;5050204;28;20029;-51
2022/02/21 12:25:09;;;;;;;40.90;5.60;;;6.10;99.90;;;;;;5060102;28;20036;-50
2022/02/21 12:27:36;;;;;;;36.67;6.00;;;6.30;99.90;;;;;;5050492;28;20452;-49
2022/02/21 12:30:02;;;;;;;42.50;6.13;;;6.40;99.90;;;;;;5059315;28;20068;-52
2022/02/21 12:32:27;;;;;;;45.75;6.07;;;6.50;99.90;;;;;;5038424;28;20041;-51
2022/02/21 12:34:53;;;;;;;34.15;4.90;;;6.60;99.90;;;;;;5055126;28;20041;-50
2022/02/21 12:37:19;;;;;;;38.83;4.72;;;6.70;99.90;;;;;;5047962;28;20570;-54
2022/02/21 12:39:46;;;;;;;33.08;5.53;;;6.80;99.90;;;;;;5052796;28;20040;-52
2022/02/21 12:42:12;;;;;;;29.60;5.05;;;6.80;99.90;;;;;;5047720;28;20033;-54
2022/02/21 12:44:39;;;;;;;43.50;5.53;;;6.80;99.90;;;;;;5052729;28;20041;-53
2022/02/21 12:47:06;;;;;;;30.40;4.20;;;6.80;99.90;;;;;;5054399;28;20041;-53